createdAt,value
2024-04-09T00:02:16.433Z,100424.48
2024-04-09T00:04:44.447Z,100426.35
2024-04-09T00:07:12.528Z,100425.81
2024-04-09T00:09:46.668Z,100423.48
2024-04-09T00:12:18.063Z,100428.02
2024-04-09T00:14:49.458Z,100428.70
2024-04-09T00:17:21.075Z,100429.86
2024-04-09T00:19:49.487Z,100430.98
2024-04-09T00:22:20.764Z,100429.74
2024-04-09T00:24:49.821Z,100433.66
2024-04-09T00:27:18.324Z,100430.62
2024-04-09T00:29:46.408Z,100435.21
2024-04-09T00:32:15.214Z,100437.86
2024-04-09T00:34:44.285Z,100434.80
2024-04-09T00:37:15.582Z,100433.77
2024-04-09T00:39:43.675Z,100445.13
2024-04-09T00:42:12.017Z,100440.35
2024-04-09T00:44:39.977Z,100438.42
2024-04-09T00:47:09.473Z,100442.16
2024-04-09T00:49:38.150Z,100443.80
2024-04-09T00:52:06.131Z,100441.71
2024-04-09T00:54:35.055Z,100441.30
2024-04-09T00:57:03.198Z,100441.39
2024-04-09T00:59:30.897Z,100440.92
2024-04-09T01:02:00.731Z,100440.65
2024-04-09T01:04:29.023Z,100440.73
2024-04-09T01:06:57.032Z,100443.45
2024-04-09T01:09:24.808Z,100439.08
2024-04-09T01:11:52.617Z,100434.72
2024-04-09T01:14:20.516Z,100438.40
2024-04-09T01:16:48.705Z,100435.26
2024-04-09T01:19:16.861Z,100435.05
2024-04-09T01:21:44.777Z,100433.39
2024-04-09T01:24:12.700Z,100426.28
2024-04-09T01:26:41.990Z,100424.75
2024-04-09T01:29:09.937Z,100426.58
2024-04-09T01:31:37.922Z,100425.30
2024-04-09T01:34:06.149Z,100425.86
2024-04-09T01:36:35.605Z,100427.45
2024-04-09T01:39:07.759Z,100432.83
2024-04-09T01:41:37.923Z,100437.61
2024-04-09T01:44:06.841Z,100436.80
2024-04-09T01:46:35.026Z,100437.79
2024-04-09T01:49:05.525Z,100440.84
2024-04-09T01:51:36.192Z,100436.36
2024-04-09T01:54:05.188Z,100434.02
2024-04-09T01:56:33.060Z,100436.36
2024-04-09T01:59:02.343Z,100436.80
2024-04-09T02:01:32.045Z,100438.11
2024-04-09T02:04:00.300Z,100434.73
2024-04-09T02:06:29.465Z,100435.54
2024-04-09T02:08:57.372Z,100432.86
2024-04-09T02:11:29.705Z,100431.35
2024-04-09T02:13:58.281Z,100438.23
2024-04-09T02:16:26.196Z,100441.46
2024-04-09T02:18:53.978Z,100443.91
2024-04-09T02:21:21.968Z,100440.14
2024-04-09T02:23:53.469Z,100442.17
2024-04-09T02:26:22.252Z,100442.76
2024-04-09T02:28:50.169Z,100446.02
2024-04-09T02:31:19.430Z,100443.48
2024-04-09T02:33:47.671Z,100445.85
2024-04-09T02:36:16.223Z,100448.30
2024-04-09T02:38:44.930Z,100448.44
2024-04-09T02:41:15.330Z,100449.03
2024-04-09T02:43:43.674Z,100441.53
2024-04-09T02:46:11.623Z,100439.59
2024-04-09T02:48:39.681Z,100438.27
2024-04-09T02:51:07.504Z,100435.78
2024-04-09T02:53:36.303Z,100435.42
2024-04-09T02:56:04.870Z,100427.64
2024-04-09T02:58:33.154Z,100423.43
2024-04-09T03:01:06.175Z,100420.73
2024-04-09T03:03:34.553Z,100419.63
2024-04-09T03:06:09.496Z,100413.95
2024-04-09T03:08:37.290Z,100411.73
2024-04-09T03:11:15.656Z,100414.55
2024-04-09T03:13:46.189Z,100408.85
2024-04-09T03:16:15.218Z,100406.55
2024-04-09T03:18:44.238Z,100405.83
2024-04-09T03:21:12.730Z,100405.92
2024-04-09T03:23:41.082Z,100400.67
2024-04-09T03:26:13.048Z,100397.95
2024-04-09T03:28:41.439Z,100397.23
2024-04-09T03:31:09.617Z,100396.67
2024-04-09T03:33:37.705Z,100393.77
2024-04-09T03:36:06.777Z,100392.75
2024-04-09T03:38:34.692Z,100389.23
2024-04-09T03:41:04.203Z,100383.34
2024-04-09T03:43:34.774Z,100388.98
2024-04-09T03:46:05.358Z,100387.98
2024-04-09T03:48:37.791Z,100393.44
2024-04-09T03:51:07.179Z,100391.02
2024-04-09T03:53:35.650Z,100394.08
2024-04-09T03:56:04.613Z,100391.95
2024-04-09T03:58:36.625Z,100393.84
2024-04-09T04:01:08.614Z,100393.66
2024-04-09T04:03:41.040Z,100400.64
2024-04-09T04:06:09.165Z,100406.05
2024-04-09T04:08:39.867Z,100407.16
2024-04-09T04:11:09.080Z,100413.27
2024-04-09T04:13:37.642Z,100423.58
2024-04-09T04:16:05.911Z,100423.23
2024-04-09T04:18:41.977Z,100430.54
2024-04-09T04:21:12.539Z,100430.67
2024-04-09T04:23:43.827Z,100431.16
2024-04-09T04:26:15.903Z,100431.30
2024-04-09T04:28:44.731Z,100438.98
2024-04-09T04:31:16.936Z,100444.88
2024-04-09T04:33:45.306Z,100448.71
2024-04-09T04:36:16.575Z,100453.33
2024-04-09T04:38:45.838Z,100456.32
2024-04-09T04:41:13.743Z,100460.11
2024-04-09T04:43:41.942Z,100468.23
2024-04-09T04:46:10.047Z,100470.48
2024-04-09T04:48:39.276Z,100474.45
2024-04-09T04:51:07.874Z,100475.30
2024-04-09T04:53:35.977Z,100478.52
2024-04-09T04:56:04.611Z,100478.79
2024-04-09T04:58:32.909Z,100472.33
2024-04-09T05:01:01.351Z,100471.70
2024-04-09T05:03:29.709Z,100472.18
2024-04-09T05:06:06.204Z,100471.19
2024-04-09T05:08:34.707Z,100474.68
2024-04-09T05:11:10.289Z,100477.15
2024-04-09T05:13:38.472Z,100479.18
2024-04-09T05:16:06.257Z,100478.02
2024-04-09T05:18:34.413Z,100479.91
2024-04-09T05:21:02.615Z,100482.71
2024-04-09T05:23:30.538Z,100484.02
2024-04-09T05:25:58.462Z,100486.70
2024-04-09T05:28:26.333Z,100487.35
2024-04-09T05:30:54.289Z,100491.05
2024-04-09T05:33:22.182Z,100490.89
2024-04-09T05:35:52.789Z,100494.17
2024-04-09T05:38:20.618Z,100493.35
2024-04-09T05:40:56.185Z,100499.51
2024-04-09T05:43:24.671Z,100502.36
2024-04-09T05:45:52.642Z,100502.92
2024-04-09T05:48:21.008Z,100505.69
2024-04-09T05:50:49.510Z,100505.36
2024-04-09T05:53:17.930Z,100502.41
2024-04-09T05:55:56.347Z,100501.40
2024-04-09T05:58:24.065Z,100500.73
2024-04-09T06:00:54.646Z,100497.54
2024-04-09T06:03:23.968Z,100500.34
2024-04-09T06:05:52.649Z,100494.61
2024-04-09T06:08:20.684Z,100494.17
2024-04-09T06:10:48.924Z,100492.55
2024-04-09T06:13:17.230Z,100491.89
2024-04-09T06:15:45.627Z,100495.27
2024-04-09T06:18:14.143Z,100491.44
2024-04-09T06:20:42.297Z,100493.13
2024-04-09T06:23:11.172Z,100494.99
2024-04-09T06:25:40.493Z,100496.26
2024-04-09T06:28:09.204Z,100493.92
2024-04-09T06:30:37.719Z,100489.10
2024-04-09T06:35:34.705Z,100490.86
2024-04-09T06:38:02.648Z,100491.58
2024-04-09T06:40:32.883Z,100489.53
2024-04-09T06:43:01.011Z,100499.47
2024-04-09T06:45:29.840Z,100492.64
2024-04-09T06:47:57.988Z,100493.75
2024-04-09T06:50:26.131Z,100493.42
2024-04-09T06:52:54.315Z,100493.30
2024-04-09T06:55:22.257Z,100482.81
2024-04-09T06:57:50.528Z,100484.78
2024-04-09T07:00:19.176Z,100485.59
2024-04-09T07:02:47.428Z,100482.15
2024-04-09T07:05:15.535Z,100479.12
2024-04-09T07:07:43.703Z,100473.92
2024-04-09T07:10:12.432Z,100473.84
2024-04-09T07:12:40.553Z,100470.30
2024-04-09T07:15:08.555Z,100465.92
2024-04-09T07:17:36.815Z,100459.38
2024-04-09T07:20:05.435Z,100456.96
2024-04-09T07:22:33.172Z,100454.10
2024-04-09T07:25:00.931Z,100452.61
2024-04-09T07:27:28.880Z,100455.58
2024-04-09T07:29:56.883Z,100459.02
2024-04-09T07:32:25.667Z,100462.73
2024-04-09T07:34:53.776Z,100462.43
2024-04-09T07:37:22.401Z,100456.95
2024-04-09T07:39:51.228Z,100456.56
2024-04-09T07:42:19.196Z,100456.95
2024-04-09T07:44:47.737Z,100453.27
2024-04-09T07:47:16.358Z,100454.02
2024-04-09T07:49:44.338Z,100453.33
2024-04-09T07:52:12.345Z,100452.23
2024-04-09T07:54:40.672Z,100449.02
2024-04-09T07:57:15.806Z,100445.63
2024-04-09T07:59:45.220Z,100445.55
2024-04-09T08:02:13.418Z,100446.67
2024-04-09T08:04:41.861Z,100438.52
2024-04-09T08:07:10.194Z,100437.47
2024-04-09T08:09:38.729Z,100434.27
2024-04-09T08:12:07.588Z,100434.46
2024-04-09T08:14:35.481Z,100429.30
2024-04-09T08:17:03.448Z,100428.49
2024-04-09T08:19:32.411Z,100430.38
2024-04-09T08:22:00.788Z,100423.13
2024-04-09T08:24:28.949Z,100419.17
2024-04-09T08:26:57.029Z,100414.27
2024-04-09T08:29:25.179Z,100414.31
2024-04-09T08:31:54.035Z,100406.79
2024-04-09T08:34:23.018Z,100405.30
2024-04-09T08:36:51.596Z,100401.22
2024-04-09T08:39:19.774Z,100395.80
2024-04-09T08:41:47.981Z,100392.42
2024-04-09T08:44:16.024Z,100395.69
2024-04-09T08:46:44.605Z,100390.06
2024-04-09T08:49:13.220Z,100385.05
2024-04-09T08:51:41.683Z,100379.46
2024-04-09T08:54:09.839Z,100378.31
2024-04-09T08:56:37.965Z,100381.91
2024-04-09T08:59:06.270Z,100379.81
2024-04-09T09:01:34.624Z,100374.81
2024-04-09T09:04:03.031Z,100372.60
2024-04-09T09:06:31.954Z,100371.42
2024-04-09T09:09:01.716Z,100368.05
2024-04-09T09:11:29.842Z,100360.88
2024-04-09T09:14:07.462Z,100354.61
2024-04-09T09:16:36.186Z,100351.36
2024-04-09T09:19:06.781Z,100339.45
2024-04-09T09:21:35.632Z,100330.59
2024-04-09T09:24:06.229Z,100335.94
2024-04-09T09:26:34.166Z,100325.48
2024-04-09T09:29:05.535Z,100324.20
2024-04-09T09:31:33.823Z,100317.82
2024-04-09T09:34:01.973Z,100311.89
2024-04-09T09:36:30.288Z,100309.67
2024-04-09T09:38:58.151Z,100315.05
2024-04-09T09:41:26.029Z,100321.10
2024-04-09T09:43:56.086Z,100313.90
2024-04-09T09:46:24.524Z,100315.77
2024-04-09T09:48:57.243Z,100315.34
2024-04-09T09:51:25.833Z,100305.55
2024-04-09T09:53:53.890Z,100308.79
2024-04-09T09:56:22.148Z,100302.71
2024-04-09T09:58:50.246Z,100307.77
2024-04-09T10:01:18.335Z,100302.64
2024-04-09T10:03:46.717Z,100292.60
2024-04-09T10:06:15.733Z,100291.58
2024-04-09T10:08:44.194Z,100289.27
2024-04-09T10:11:12.966Z,100295.24
2024-04-09T10:13:51.900Z,100293.92
2024-04-09T10:16:19.991Z,100299.73
2024-04-09T10:18:49.851Z,100289.48
2024-04-09T10:21:29.319Z,100284.27
2024-04-09T10:24:03.091Z,100272.80
2024-04-09T10:26:32.163Z,100280.04
2024-04-09T10:29:04.663Z,100280.58
2024-04-09T10:31:32.743Z,100272.73
2024-04-09T10:34:01.106Z,100264.34
2024-04-09T10:36:29.184Z,100265.80
2024-04-09T10:38:56.997Z,100257.25
2024-04-09T10:41:25.152Z,100256.22
2024-04-09T10:43:53.267Z,100258.66
2024-04-09T10:46:22.894Z,100254.80
2024-04-09T10:48:55.767Z,100252.56
2024-04-09T10:51:24.039Z,100249.95
2024-04-09T10:53:52.254Z,100263.59
2024-04-09T10:56:20.158Z,100249.59
2024-04-09T10:58:48.191Z,100244.03
2024-04-09T11:01:17.527Z,100238.58
2024-04-09T11:03:46.061Z,100236.45
2024-04-09T11:06:16.167Z,100234.21
2024-04-09T11:08:46.702Z,100220.90
2024-04-09T11:11:14.922Z,100224.38
2024-04-09T11:13:43.444Z,100220.26
2024-04-09T11:16:19.314Z,100211.02
2024-04-09T11:19:00.858Z,100211.21
2024-04-09T11:21:30.775Z,100213.35
2024-04-09T11:23:58.839Z,100201.31
2024-04-09T11:26:26.736Z,100189.86
2024-04-09T11:28:55.763Z,100191.65
2024-04-09T11:31:24.002Z,100200.02
2024-04-09T11:33:52.402Z,100210.04
2024-04-09T11:36:29.920Z,100208.09
2024-04-09T11:39:00.859Z,100204.71
2024-04-09T11:41:29.309Z,100200.38
2024-04-09T11:44:00.024Z,100203.31
2024-04-09T11:46:28.334Z,100188.92
2024-04-09T11:49:01.927Z,100182.28
2024-04-09T11:51:32.090Z,100179.45
2024-04-09T11:54:03.934Z,100164.97
2024-04-09T11:56:33.922Z,100155.84
2024-04-09T11:59:02.412Z,100161.14
2024-04-09T12:01:30.674Z,100163.46
2024-04-09T12:03:59.622Z,100160.29
2024-04-09T12:06:29.555Z,100158.74
2024-04-09T12:08:57.812Z,100168.09
2024-04-09T12:11:27.113Z,100164.14
2024-04-09T12:13:55.316Z,100159.41
2024-04-09T12:16:23.350Z,100154.63
2024-04-09T12:18:51.569Z,100148.55
2024-04-09T12:21:19.630Z,100136.41
2024-04-09T12:23:47.793Z,100131.23
2024-04-09T12:26:16.037Z,100118.73
2024-04-09T12:28:44.375Z,100112.95
2024-04-09T12:31:12.414Z,100113.76
2024-04-09T12:33:41.220Z,100131.02
2024-04-09T12:36:09.135Z,100133.42
2024-04-09T12:38:37.043Z,100128.91
2024-04-09T12:41:04.867Z,100134.27
2024-04-09T12:43:32.881Z,100140.29
2024-04-09T12:46:00.846Z,100138.91
2024-04-09T12:48:28.712Z,100131.09
2024-04-09T12:50:57.265Z,100134.64
2024-04-09T12:53:25.107Z,100117.63
2024-04-09T12:55:54.138Z,100123.16
2024-04-09T12:58:22.734Z,100119.76
2024-04-09T13:01:05.342Z,100114.13
2024-04-09T13:03:39.535Z,100112.81
2024-04-09T13:06:08.412Z,100113.21
2024-04-09T13:08:36.946Z,100105.24
2024-04-09T13:11:14.012Z,100099.72
2024-04-09T13:13:42.118Z,100088.08
2024-04-09T13:18:42.274Z,100071.32
2024-04-09T13:21:10.595Z,100066.29
2024-04-09T13:23:38.521Z,100071.90
2024-04-09T13:26:06.539Z,100070.50
2024-04-09T13:28:36.423Z,100073.58
2024-04-09T13:31:06.571Z,100070.36
2024-04-09T13:33:34.966Z,100064.52
2024-04-09T13:36:03.032Z,100073.58
2024-04-09T13:38:32.919Z,100059.46
2024-04-09T13:41:02.907Z,100053.05
2024-04-09T13:43:31.709Z,100048.61
2024-04-09T13:45:59.883Z,100058.59
2024-04-09T13:48:28.621Z,100058.90
2024-04-09T13:50:57.244Z,100071.55
2024-04-09T13:53:25.835Z,100087.45
2024-04-09T13:55:53.773Z,100097.46
2024-04-09T13:58:21.769Z,100100.98
2024-04-09T14:00:49.855Z,100102.10
2024-04-09T14:03:18.236Z,100094.89
2024-04-09T14:05:46.392Z,100099.92
2024-04-09T14:08:14.551Z,100118.92
2024-04-09T14:10:42.896Z,100122.41
2024-04-09T14:13:11.201Z,100127.89
2024-04-09T14:15:40.009Z,100122.66
2024-04-09T14:18:11.988Z,100107.81
2024-04-09T14:20:40.242Z,100116.04
2024-04-09T14:23:09.737Z,100115.61
2024-04-09T14:25:37.580Z,100113.73
2024-04-09T14:28:05.810Z,100110.41
2024-04-09T14:30:35.027Z,100105.95
2024-04-09T14:33:03.196Z,100105.13
2024-04-09T14:35:31.686Z,100096.30
2024-04-09T14:37:59.955Z,100092.69
2024-04-09T14:40:27.988Z,100090.98
2024-04-09T14:42:58.092Z,100087.02
2024-04-09T14:45:28.613Z,100090.17
2024-04-09T14:47:57.036Z,100081.56
2024-04-09T14:50:26.135Z,100069.04
2024-04-09T14:52:54.736Z,100066.30
2024-04-09T14:55:23.625Z,100074.27
2024-04-09T14:57:51.919Z,100062.55
2024-04-09T15:00:20.227Z,100047.45
2024-04-09T15:02:48.085Z,100049.59
2024-04-09T15:05:17.427Z,100066.23
2024-04-09T15:07:45.729Z,100087.05
2024-04-09T15:10:14.194Z,100086.34
2024-04-09T15:12:42.736Z,100086.11
2024-04-09T15:15:11.985Z,100075.05
2024-04-09T15:17:40.448Z,100072.35
2024-04-09T15:20:12.341Z,100086.40
2024-04-09T15:22:40.352Z,100069.98
2024-04-09T15:25:14.115Z,100063.93
2024-04-09T15:27:43.569Z,100079.94
2024-04-09T15:30:12.143Z,100084.95
2024-04-09T15:32:43.239Z,100077.41
2024-04-09T15:35:12.531Z,100088.13
2024-04-09T15:37:40.868Z,100082.39
2024-04-09T15:40:15.635Z,100093.63
2024-04-09T15:42:47.421Z,100098.23
2024-04-09T15:45:15.636Z,100112.45
2024-04-09T15:47:45.490Z,100113.89
2024-04-09T15:50:14.779Z,100126.41
2024-04-09T15:52:42.883Z,100119.84
2024-04-09T15:55:12.907Z,100128.16
2024-04-09T15:57:42.238Z,100129.22
2024-04-09T16:00:13.623Z,100132.73
2024-04-09T16:02:42.092Z,100139.91
2024-04-09T16:05:10.206Z,100141.48
2024-04-09T16:07:39.171Z,100143.77
2024-04-09T16:10:07.417Z,100144.04
2024-04-09T16:12:36.339Z,100140.98
2024-04-09T16:15:05.519Z,100145.30
2024-04-09T16:17:33.869Z,100148.50
2024-04-09T16:20:02.777Z,100160.16
2024-04-09T16:22:30.937Z,100163.69
2024-04-09T16:24:58.981Z,100171.71
2024-04-09T16:27:27.846Z,100174.17
2024-04-09T16:29:56.206Z,100179.38
2024-04-09T16:32:24.455Z,100189.61
2024-04-09T16:34:52.637Z,100190.52
2024-04-09T16:37:20.665Z,100195.79
2024-04-09T16:39:49.449Z,100201.38
2024-04-09T16:42:19.472Z,100210.41
2024-04-09T16:44:47.827Z,100216.70
2024-04-09T16:47:15.837Z,100221.91
2024-04-09T16:49:44.043Z,100218.41
2024-04-09T16:52:13.109Z,100222.89
2024-04-09T16:54:40.895Z,100228.65
2024-04-09T16:57:09.979Z,100233.45
2024-04-09T16:59:38.325Z,100238.13
2024-04-09T17:02:06.678Z,100241.73
2024-04-09T17:04:34.777Z,100241.73
2024-04-09T17:07:02.874Z,100249.80
2024-04-09T17:09:30.956Z,100254.43
2024-04-09T17:11:59.202Z,100257.15
2024-04-09T17:14:28.016Z,100256.39
2024-04-09T17:16:56.375Z,100260.88
2024-04-09T17:19:25.365Z,100263.31
2024-04-09T17:21:56.376Z,100264.45
2024-04-09T17:24:24.558Z,100266.77
2024-04-09T17:26:52.592Z,100263.16
2024-04-09T17:29:20.588Z,100265.49
2024-04-09T17:31:48.749Z,100268.41
2024-04-09T17:34:17.098Z,100271.97
2024-04-09T17:36:45.266Z,100273.84
2024-04-09T17:39:13.424Z,100279.31
2024-04-09T17:41:43.103Z,100278.56
2024-04-09T17:44:11.098Z,100279.82
2024-04-09T17:46:39.209Z,100279.86
2024-04-09T17:49:07.570Z,100278.83
2024-04-09T17:51:35.935Z,100282.27
2024-04-09T17:54:04.346Z,100283.15
2024-04-09T17:56:32.703Z,100283.67
2024-04-09T17:59:01.245Z,100284.20
2024-04-09T18:01:30.548Z,100282.59
2024-04-09T18:03:59.156Z,100287.45
2024-04-09T18:06:27.807Z,100289.43
2024-04-09T18:08:56.279Z,100290.38
2024-04-09T18:11:26.405Z,100284.55
2024-04-09T18:13:54.775Z,100281.20
2024-04-09T18:16:23.167Z,100281.51
2024-04-09T18:18:54.827Z,100281.91
2024-04-09T18:21:24.478Z,100285.01
2024-04-09T18:23:52.683Z,100283.95
2024-04-09T18:26:21.833Z,100288.95
2024-04-09T18:28:50.065Z,100291.06
2024-04-09T18:31:18.200Z,100292.40
2024-04-09T18:33:47.466Z,100294.13
2024-04-09T18:36:15.568Z,100290.77
2024-04-09T18:38:48.577Z,100288.93
2024-04-09T18:41:17.298Z,100286.09
2024-04-09T18:43:45.741Z,100287.86
2024-04-09T18:46:14.178Z,100288.98
2024-04-09T18:48:42.385Z,100290.19
2024-04-09T18:51:14.853Z,100293.50
2024-04-09T18:53:42.928Z,100298.13
2024-04-09T18:56:11.040Z,100297.27
2024-04-09T18:58:39.179Z,100298.82
2024-04-09T19:01:07.502Z,100302.55
2024-04-09T19:03:38.869Z,100307.47
2024-04-09T19:06:07.089Z,100308.51
2024-04-09T19:08:35.196Z,100305.01
2024-04-09T19:11:05.825Z,100304.23
2024-04-09T19:13:34.886Z,100304.55
2024-04-09T19:16:05.016Z,100302.24
2024-04-09T19:18:35.860Z,100305.79
2024-04-09T19:21:04.480Z,100307.52
2024-04-09T19:23:33.152Z,100306.80
2024-04-09T19:26:01.550Z,100304.33
2024-04-09T19:28:29.460Z,100303.60
2024-04-09T19:30:58.503Z,100304.73
2024-04-09T19:33:26.743Z,100304.46
2024-04-09T19:35:58.003Z,100303.90
2024-04-09T19:38:25.815Z,100302.64
2024-04-09T19:40:55.411Z,100305.17
2024-04-09T19:43:34.143Z,100307.35
2024-04-09T19:46:10.570Z,100310.77
2024-04-09T19:48:38.878Z,100312.25
2024-04-09T19:51:07.362Z,100312.17
2024-04-09T19:53:46.657Z,100309.24
2024-04-09T19:56:22.390Z,100308.27
2024-04-09T19:58:50.763Z,100307.10
2024-04-09T20:01:19.539Z,100308.30
2024-04-09T20:03:48.033Z,100307.02
2024-04-09T20:06:16.367Z,100302.16
2024-04-09T20:08:44.466Z,100304.91
2024-04-09T20:11:13.830Z,100302.33
2024-04-09T20:13:43.505Z,100304.55
2024-04-09T20:16:11.994Z,100307.91
2024-04-09T20:18:40.755Z,100310.85
2024-04-09T20:21:08.809Z,100313.46
2024-04-09T20:23:36.890Z,100312.03
2024-04-09T20:26:05.340Z,100308.90
2024-04-09T20:28:33.254Z,100310.27
2024-04-09T20:31:05.642Z,100315.44
2024-04-09T20:33:33.659Z,100312.38
2024-04-09T20:36:02.010Z,100309.84
2024-04-09T20:38:30.106Z,100308.00
2024-04-09T20:41:01.769Z,100310.88
2024-04-09T20:43:29.873Z,100307.71
2024-04-09T20:45:58.098Z,100308.27
2024-04-09T20:48:26.122Z,100313.13
2024-04-09T20:50:55.760Z,100309.90
2024-04-09T20:53:23.568Z,100309.73
2024-04-09T20:56:00.653Z,100310.55
2024-04-09T20:58:28.653Z,100310.50
2024-04-09T21:00:56.549Z,100304.29
2024-04-09T21:03:24.621Z,100305.31
2024-04-09T21:05:52.577Z,100303.69
2024-04-09T21:08:20.706Z,100304.36
2024-04-09T21:10:51.787Z,100305.14
2024-04-09T21:13:19.897Z,100306.59
2024-04-09T21:15:47.820Z,100304.81
2024-04-09T21:18:17.929Z,100301.99
2024-04-09T21:20:46.863Z,100298.02
2024-04-09T21:23:14.845Z,100294.28
2024-04-09T21:25:46.589Z,100294.91
2024-04-09T21:28:14.658Z,100296.45
2024-04-09T21:30:42.488Z,100300.56
2024-04-09T21:33:11.123Z,100296.67
2024-04-09T21:35:40.497Z,100292.95
2024-04-09T21:38:08.484Z,100291.89
2024-04-09T21:40:36.453Z,100291.23
2024-04-09T21:43:04.400Z,100292.03
2024-04-09T21:45:32.428Z,100288.48
2024-04-09T21:48:00.660Z,100288.57
2024-04-09T21:50:29.511Z,100287.63
2024-04-09T21:52:58.098Z,100285.91
2024-04-09T21:55:26.094Z,100289.10
2024-04-09T21:57:54.266Z,100291.52
2024-04-09T22:00:24.925Z,100290.89
2024-04-09T22:02:53.935Z,100286.71
2024-04-09T22:05:22.294Z,100283.34
2024-04-09T22:07:51.226Z,100285.95
2024-04-09T22:10:19.346Z,100297.01
2024-04-09T22:12:47.307Z,100311.59
2024-04-09T22:15:15.270Z,100315.67
2024-04-09T22:17:46.083Z,100325.67
2024-04-09T22:20:14.399Z,100331.98
2024-04-09T22:27:02.234Z,100328.77
2024-04-09T22:29:30.319Z,100330.48
2024-04-09T22:31:58.333Z,100331.77
2024-04-09T22:34:26.394Z,100328.16
2024-04-09T22:36:54.595Z,100324.63
2024-04-09T22:39:22.799Z,100315.77
2024-04-09T22:41:50.725Z,100311.14
2024-04-09T22:44:18.447Z,100314.16
2024-04-09T22:46:46.271Z,100306.93
2024-04-09T22:49:14.500Z,100313.38
2024-04-09T22:51:45.039Z,100313.95
2024-04-09T22:54:13.108Z,100313.02
2024-04-09T22:56:41.109Z,100315.36
2024-04-09T22:59:09.007Z,100311.80
2024-04-09T23:01:36.872Z,100313.74
2024-04-09T23:04:04.901Z,100316.48
2024-04-09T23:06:33.520Z,100316.34
2024-04-09T23:09:02.188Z,100319.63
2024-04-09T23:11:29.974Z,100321.08
2024-04-09T23:13:57.955Z,100321.70
2024-04-09T23:16:26.034Z,100324.01
2024-04-09T23:18:54.619Z,100322.83
2024-04-09T23:21:23.371Z,100323.27
2024-04-09T23:23:51.667Z,100318.91
2024-04-09T23:26:19.922Z,100315.70
2024-04-09T23:28:47.864Z,100311.11
2024-04-09T23:31:18.086Z,100308.77
2024-04-09T23:33:46.438Z,100308.15
2024-04-09T23:36:14.434Z,100307.08
2024-04-09T23:38:42.390Z,100305.74
2024-04-09T23:41:10.977Z,100301.83
2024-04-09T23:43:38.791Z,100305.34
2024-04-09T23:46:08.890Z,100303.36
2024-04-09T23:48:37.159Z,100302.63
2024-04-09T23:51:08.736Z,100304.84
2024-04-09T23:53:37.195Z,100309.56
2024-04-09T23:56:05.831Z,100308.89
2024-04-09T23:58:34.415Z,100311.55
